Time;durP1;ratioP1;P1;durP2;ratioP2;P2;SDS_P1;SDS_P2;PMS_P1;PMS_P2;Temp;Humidity;BMP_temperature;BMP_pressure;BME280_temperature;BME280_humidity;BME280_pressure;Samples;Min_cycle;Max_cycle;Signal;HPM_P1;HPM_P2
2023/09/30 00:01:43;;;;;;;27.67;25.83;;;10.40;99.50;;;;;;4998577;28;20041;-69
2023/09/30 00:04:10;;;;;;;18.97;17.50;;;10.40;99.70;;;;;;5005926;28;20050;-69
2023/09/30 00:06:36;;;;;;;40.23;37.80;;;10.50;99.80;;;;;;5010468;28;20800;-69
2023/09/30 00:09:02;;;;;;;36.53;34.20;;;10.50;99.90;;;;;;5003631;28;20305;-69
2023/09/30 00:11:28;;;;;;;32.30;29.53;;;10.60;99.90;;;;;;4999069;28;20128;-69
2023/09/30 00:13:53;;;;;;;51.53;48.53;;;10.70;99.90;;;;;;5000087;28;20380;-69
2023/09/30 00:16:19;;;;;;;38.97;36.10;;;10.80;99.90;;;;;;4996905;28;20490;-69
2023/09/30 00:18:46;;;;;;;38.60;36.33;;;10.90;99.90;;;;;;4990323;28;20057;-69
2023/09/30 00:21:12;;;;;;;23.10;20.93;;;11.00;99.90;;;;;;4997773;28;20038;-69
2023/09/30 00:23:37;;;;;;;47.27;44.33;;;11.10;99.90;;;;;;5003680;28;20827;-69
2023/09/30 00:26:03;;;;;;;55.50;52.30;;;11.10;99.90;;;;;;5000716;28;20084;-69
2023/09/30 00:28:29;;;;;;;50.43;47.10;;;11.20;99.90;;;;;;4997703;28;20030;-71
2023/09/30 00:30:55;;;;;;;42.10;39.33;;;11.30;99.90;;;;;;5008009;28;20138;-70
2023/09/30 00:33:20;;;;;;;45.70;43.10;;;11.40;99.90;;;;;;5003981;28;20387;-70
2023/09/30 00:35:46;;;;;;;40.87;38.03;;;11.40;99.90;;;;;;4986891;28;20126;-70
2023/09/30 00:38:12;;;;;;;41.20;38.43;;;11.50;99.90;;;;;;5001541;28;20045;-70
2023/09/30 00:40:38;;;;;;;36.87;34.30;;;11.50;99.90;;;;;;5008607;28;20061;-70
2023/09/30 00:43:03;;;;;;;49.00;45.73;;;11.50;99.90;;;;;;4993435;28;20411;-70
2023/09/30 00:45:30;;;;;;;54.63;51.00;;;11.50;99.90;;;;;;5000790;28;20461;-70
2023/09/30 00:47:56;;;;;;;33.30;31.00;;;11.60;99.90;;;;;;4996967;28;20041;-70
2023/09/30 00:50:22;;;;;;;24.60;22.43;;;11.70;99.90;;;;;;5005859;28;20380;-70
2023/09/30 00:52:49;;;;;;;28.50;25.83;;;11.90;99.90;;;;;;5001245;28;20056;-70
2023/09/30 00:55:16;;;;;;;34.73;32.47;;;12.00;99.90;;;;;;4999471;28;20489;-70
2023/09/30 00:57:43;;;;;;;34.67;32.37;;;12.10;99.90;;;;;;5004846;28;20379;-70
2023/09/30 01:00:12;;;;;;;23.47;21.67;;;12.20;99.90;;;;;;5020219;28;20399;-70
2023/09/30 01:02:41;;;;;;;28.70;26.73;;;12.30;99.90;;;;;;5012589;28;20807;-70
2023/09/30 01:05:08;;;;;;;24.30;22.47;;;12.40;99.90;;;;;;5009925;28;20285;-70
2023/09/30 01:07:34;;;;;;;39.90;37.30;;;12.60;99.90;;;;;;5010066;28;20319;-70
2023/09/30 01:10:01;;;;;;;36.57;34.27;;;12.70;99.90;;;;;;5006613;28;20387;-70
2023/09/30 01:12:27;;;;;;;40.60;37.83;;;12.80;99.90;;;;;;5003305;28;20301;-70
2023/09/30 01:14:58;;;;;;;34.63;32.23;;;12.90;99.90;;;;;;5002242;28;20712;-70
2023/09/30 01:17:24;;;;;;;29.63;27.23;;;13.00;99.90;;;;;;4998053;28;20439;-70
2023/09/30 01:19:52;;;;;;;44.60;41.47;;;13.00;99.90;;;;;;4992684;28;20324;-70
2023/09/30 01:22:17;;;;;;;31.57;29.87;;;13.00;99.90;;;;;;5006146;28;20095;-70
2023/09/30 01:24:44;;;;;;;45.83;43.13;;;13.00;99.90;;;;;;5004724;28;20384;-70
2023/09/30 01:27:09;;;;;;;32.17;30.00;;;13.00;99.90;;;;;;4994764;28;20069;-70
2023/09/30 01:29:38;;;;;;;32.27;29.67;;;12.90;99.90;;;;;;5006810;28;20777;-70
2023/09/30 01:32:08;;;;;;;37.70;35.17;;;12.90;99.90;;;;;;4979495;28;20092;-70
2023/09/30 01:34:34;;;;;;;52.97;50.10;;;13.00;99.90;;;;;;4996344;28;20781;-70
2023/09/30 01:37:00;;;;;;;47.20;44.43;;;13.00;99.90;;;;;;4992750;28;20285;-70
2023/09/30 01:39:26;;;;;;;33.53;31.53;;;13.00;99.90;;;;;;5011285;28;20885;-70
2023/09/30 01:41:52;;;;;;;61.73;58.60;;;13.00;99.90;;;;;;4986549;28;20499;-70
2023/09/30 01:44:17;;;;;;;41.80;38.90;;;13.00;99.90;;;;;;5004463;28;20037;-70
2023/09/30 01:46:43;;;;;;;48.77;45.60;;;13.00;99.90;;;;;;4989647;28;20125;-70
2023/09/30 01:49:09;;;;;;;38.80;35.83;;;13.00;99.90;;;;;;5002519;28;20054;-70
2023/09/30 01:51:35;;;;;;;44.37;41.67;;;13.00;99.90;;;;;;5007310;28;20061;-70
2023/09/30 01:54:01;;;;;;;48.77;45.77;;;13.00;99.90;;;;;;5004375;28;20770;-70
2023/09/30 01:56:27;;;;;;;39.07;36.53;;;13.00;99.90;;;;;;5010442;28;20064;-70
2023/09/30 01:58:52;;;;;;;48.50;45.83;;;13.00;99.90;;;;;;4996237;28;20057;-71
2023/09/30 02:01:18;;;;;;;44.43;41.40;;;13.00;99.90;;;;;;5005137;28;20033;-70
2023/09/30 02:03:44;;;;;;;26.97;25.27;;;13.00;99.90;;;;;;5009753;28;20458;-70
2023/09/30 02:06:10;;;;;;;46.27;43.67;;;12.90;99.90;;;;;;4999219;28;20084;-70
2023/09/30 02:08:36;;;;;;;40.53;37.73;;;12.90;99.90;;;;;;5015324;28;20049;-70
2023/09/30 02:11:03;;;;;;;56.07;52.77;;;12.90;99.90;;;;;;5005894;28;20307;-70
2023/09/30 02:13:29;;;;;;;38.47;35.67;;;13.00;99.90;;;;;;5025519;28;20308;-70
2023/09/30 02:15:57;;;;;;;53.07;49.97;;;13.00;99.90;;;;;;5011085;28;20288;-70
2023/09/30 02:18:23;;;;;;;75.10;71.03;;;13.10;99.90;;;;;;5008716;28;20339;-70
2023/09/30 02:20:50;;;;;;;56.67;53.40;;;13.10;99.90;;;;;;4996043;28;20761;-70
2023/09/30 02:23:17;;;;;;;35.33;33.10;;;13.10;99.90;;;;;;4993466;28;20044;-70
2023/09/30 02:25:43;;;;;;;39.33;36.73;;;13.10;99.90;;;;;;5004430;28;20346;-70
2023/09/30 02:28:09;;;;;;;53.30;50.30;;;13.10;99.90;;;;;;5001868;28;20790;-70
2023/09/30 02:30:35;;;;;;;44.43;41.80;;;13.10;99.90;;;;;;5008765;28;20300;-70
2023/09/30 02:33:01;;;;;;;39.20;36.83;;;13.10;99.90;;;;;;4991242;28;20776;-70
2023/09/30 02:35:27;;;;;;;30.77;28.97;;;13.10;99.90;;;;;;5006815;28;21126;-70
2023/09/30 02:37:54;;;;;;;49.33;46.67;;;13.10;99.80;;;;;;5005794;28;20284;-70
2023/09/30 02:40:20;;;;;;;31.90;29.97;;;13.00;99.70;;;;;;5005134;28;20054;-70
2023/09/30 02:42:47;;;;;;;51.53;48.80;;;12.90;99.70;;;;;;5008379;28;20812;-70
2023/09/30 02:45:17;;;;;;;36.10;33.83;;;12.90;99.80;;;;;;5010545;28;20299;-70
2023/09/30 02:47:42;;;;;;;56.20;53.00;;;12.80;99.70;;;;;;5009794;28;20328;-70
2023/09/30 02:50:12;;;;;;;41.43;39.07;;;12.80;99.60;;;;;;5001631;28;20300;-71
2023/09/30 02:52:41;;;;;;;53.87;50.50;;;12.70;99.60;;;;;;4997086;28;20387;-71
2023/09/30 02:55:11;;;;;;;34.37;31.97;;;12.60;99.60;;;;;;5023661;28;20297;-70
2023/09/30 02:57:37;;;;;;;36.07;33.47;;;12.60;99.60;;;;;;4993095;28;20287;-71
2023/09/30 03:00:14;;;;;;;41.07;38.40;;;12.50;99.80;;;;;;5006453;28;20355;-71
2023/09/30 03:02:39;;;;;;;45.53;42.90;;;12.50;99.80;;;;;;4992044;28;20297;-70
2023/09/30 03:05:06;;;;;;;46.83;43.87;;;12.50;99.90;;;;;;4995773;28;20339;-70
2023/09/30 03:07:33;;;;;;;25.27;23.27;;;12.40;99.90;;;;;;5000978;28;20053;-71
2023/09/30 03:10:00;;;;;;;47.63;44.90;;;12.40;99.90;;;;;;5009515;28;20652;-71
2023/09/30 03:12:25;;;;;;;53.10;50.17;;;12.30;99.90;;;;;;5006012;28;20319;-70
2023/09/30 03:14:51;;;;;;;39.97;37.33;;;12.30;99.80;;;;;;5008752;28;20567;-71
2023/09/30 03:17:17;;;;;;;51.43;48.53;;;12.20;99.70;;;;;;5004648;28;20565;-71
2023/09/30 03:19:43;;;;;;;71.70;67.80;;;12.20;99.90;;;;;;5000638;28;20046;-70
2023/09/30 03:22:11;;;;;;;27.77;25.47;;;12.20;99.90;;;;;;5010247;28;20034;-70
2023/09/30 03:24:41;;;;;;;43.47;40.80;;;12.10;99.90;;;;;;4993749;28;20286;-70
2023/09/30 03:27:07;;;;;;;50.93;48.33;;;12.20;99.90;;;;;;5005785;28;20332;-71
2023/09/30 03:29:35;;;;;;;51.40;48.43;;;12.10;99.90;;;;;;4999442;28;20801;-70
2023/09/30 03:32:00;;;;;;;57.97;54.73;;;12.10;99.90;;;;;;5006231;28;20293;-70
2023/09/30 03:34:26;;;;;;;63.03;59.53;;;12.10;99.90;;;;;;4994238;28;20301;-70
2023/09/30 03:36:54;;;;;;;91.50;87.07;;;12.10;99.90;;;;;;4995155;28;20037;-70
2023/09/30 03:39:26;;;;;;;127.13;121.03;;;12.00;99.90;;;;;;5002636;28;20037;-70
2023/09/30 03:41:54;;;;;;;70.33;66.97;;;12.00;99.90;;;;;;5003187;28;20332;-70
2023/09/30 03:44:20;;;;;;;50.87;47.97;;;12.00;99.90;;;;;;4990118;28;20289;-72
2023/09/30 03:46:46;;;;;;;39.37;36.87;;;12.00;99.90;;;;;;5000685;28;20297;-71
2023/09/30 03:49:12;;;;;;;42.77;40.20;;;11.90;99.90;;;;;;4992555;28;20129;-70
2023/09/30 03:51:37;;;;;;;53.07;50.37;;;11.90;99.90;;;;;;5009710;28;20376;-70
2023/09/30 03:54:03;;;;;;;49.23;46.23;;;11.90;99.90;;;;;;4989859;28;20045;-70
2023/09/30 03:56:29;;;;;;;39.93;37.43;;;11.90;99.90;;;;;;5009751;28;20041;-71
2023/09/30 03:58:54;;;;;;;43.90;41.27;;;11.90;99.90;;;;;;5000292;28;20042;-71
2023/09/30 04:01:20;;;;;;;33.63;31.40;;;11.90;99.90;;;;;;4991576;28;20045;-71
2023/09/30 04:03:46;;;;;;;68.97;65.47;;;11.80;99.90;;;;;;5005168;28;20200;-71
2023/09/30 04:06:12;;;;;;;43.73;41.07;;;11.80;99.90;;;;;;5003201;28;20066;-71
2023/09/30 04:08:38;;;;;;;57.87;54.50;;;11.80;99.90;;;;;;5018549;28;20053;-70
2023/09/30 04:11:04;;;;;;;56.33;53.23;;;11.80;99.90;;;;;;5009239;28;20167;-70
2023/09/30 04:13:29;;;;;;;69.90;66.30;;;11.80;99.90;;;;;;5003036;28;20285;-70
2023/09/30 04:15:58;;;;;;;68.77;65.37;;;11.80;99.90;;;;;;4995265;28;20329;-70
2023/09/30 04:18:25;;;;;;;56.70;53.87;;;11.70;99.90;;;;;;5007500;28;20060;-70
2023/09/30 04:20:52;;;;;;;48.27;45.57;;;11.70;99.90;;;;;;5002842;28;20295;-70
2023/09/30 04:23:20;;;;;;;43.73;40.97;;;11.70;99.90;;;;;;5011490;28;20293;-70
2023/09/30 04:25:46;;;;;;;27.73;25.83;;;11.60;99.90;;;;;;5000986;28;20347;-70
2023/09/30 04:28:13;;;;;;;60.57;57.60;;;11.60;99.90;;;;;;5001087;28;20305;-70
2023/09/30 04:30:40;;;;;;;34.47;32.10;;;11.60;99.90;;;;;;4989947;28;20788;-70
2023/09/30 04:33:05;;;;;;;42.50;39.93;;;11.60;99.90;;;;;;5011128;28;20623;-70
2023/09/30 04:35:31;;;;;;;45.90;43.10;;;11.50;99.90;;;;;;5000175;28;20279;-70
2023/09/30 04:38:01;;;;;;;37.37;35.03;;;11.50;99.90;;;;;;4997523;28;20478;-70
2023/09/30 04:40:27;;;;;;;51.53;48.53;;;11.40;99.90;;;;;;4996514;28;20081;-71
2023/09/30 04:42:58;;;;;;;34.70;32.37;;;11.40;99.90;;;;;;5002766;28;20288;-70
2023/09/30 04:45:25;;;;;;;53.73;50.73;;;11.30;99.90;;;;;;5006284;28;20328;-70
2023/09/30 04:47:52;;;;;;;104.73;99.70;;;11.30;99.90;;;;;;5007619;28;20299;-70
2023/09/30 04:50:21;;;;;;;71.23;67.63;;;11.20;99.90;;;;;;5004894;28;20293;-70
2023/09/30 04:52:48;;;;;;;80.10;75.93;;;11.10;99.90;;;;;;5007718;28;20280;-70
2023/09/30 04:55:18;;;;;;;63.93;60.77;;;11.10;99.90;;;;;;5003962;28;20285;-70
2023/09/30 04:57:45;;;;;;;70.67;66.93;;;11.00;99.90;;;;;;5009390;28;20289;-70
2023/09/30 05:00:16;;;;;;;85.17;80.83;;;10.90;99.90;;;;;;4996119;28;20360;-71
2023/09/30 05:02:44;;;;;;;79.43;75.23;;;10.90;99.90;;;;;;4997610;28;20785;-70
2023/09/30 05:05:10;;;;;;;81.07;77.23;;;10.80;99.90;;;;;;4996055;28;20285;-71
2023/09/30 05:07:36;;;;;;;75.10;71.20;;;10.70;99.90;;;;;;4988813;28;20373;-70
2023/09/30 05:10:10;;;;;;;188.80;180.33;;;10.70;99.90;;;;;;5002450;28;20300;-70
2023/09/30 05:12:36;;;;;;;169.80;162.13;;;10.60;99.90;;;;;;5003561;28;20288;-70
2023/09/30 05:15:02;;;;;;;155.43;148.60;;;10.60;99.90;;;;;;5010630;28;20277;-71
2023/09/30 05:17:29;;;;;;;160.47;153.60;;;10.60;99.90;;;;;;4995077;28;20353;-70
2023/09/30 05:19:56;;;;;;;199.00;190.60;;;10.50;99.90;;;;;;4991712;28;20332;-70
2023/09/30 05:22:24;;;;;;;134.97;129.07;;;10.40;99.90;;;;;;4996870;28;20772;-70
2023/09/30 05:24:53;;;;;;;174.90;167.60;;;10.40;99.90;;;;;;4984189;28;20721;-70
2023/09/30 05:27:19;;;;;;;177.10;169.40;;;10.40;99.90;;;;;;5005637;28;20276;-70
2023/09/30 05:29:45;;;;;;;223.93;214.33;;;10.40;99.90;;;;;;4994770;28;20274;-70
2023/09/30 05:32:12;;;;;;;164.30;157.40;;;10.40;99.90;;;;;;5009606;28;20842;-71
2023/09/30 05:34:39;;;;;;;174.43;167.00;;;10.30;99.90;;;;;;5002822;28;20049;-71
2023/09/30 05:37:04;;;;;;;191.67;183.13;;;10.30;99.90;;;;;;4990895;28;20640;-71
2023/09/30 05:39:31;;;;;;;210.87;201.70;;;10.30;99.90;;;;;;4996739;28;20301;-71
2023/09/30 05:41:57;;;;;;;243.37;232.87;;;10.30;99.90;;;;;;4999805;28;20120;-71
2023/09/30 05:44:23;;;;;;;159.07;151.97;;;10.30;99.90;;;;;;4994564;28;20321;-71
2023/09/30 05:46:49;;;;;;;175.23;167.50;;;10.30;99.90;;;;;;5005432;28;20316;-71
2023/09/30 05:49:15;;;;;;;204.43;195.60;;;10.20;99.90;;;;;;4997934;28;20041;-72
2023/09/30 05:51:41;;;;;;;188.50;180.60;;;10.20;99.90;;;;;;5001727;28;20697;-71
2023/09/30 05:54:09;;;;;;;211.80;202.87;;;10.20;99.90;;;;;;5002043;28;20072;-71
2023/09/30 05:56:42;;;;;;;217.77;207.97;;;10.10;99.90;;;;;;5001935;28;20801;-71
2023/09/30 05:59:08;;;;;;;165.70;158.47;;;10.20;99.90;;;;;;4984054;28;20343;-71
2023/09/30 06:01:35;;;;;;;193.73;185.43;;;10.20;99.90;;;;;;5023588;28;20288;-71
2023/09/30 06:04:01;;;;;;;193.80;185.63;;;10.20;99.90;;;;;;4998862;28;20289;-72
2023/09/30 06:06:29;;;;;;;182.83;174.80;;;10.20;99.90;;;;;;5000900;28;20304;-72
2023/09/30 06:08:58;;;;;;;216.03;206.73;;;10.20;99.90;;;;;;5008633;28;20410;-71
2023/09/30 06:11:24;;;;;;;208.10;199.37;;;10.20;99.90;;;;;;4998881;28;20277;-71
2023/09/30 06:13:54;;;;;;;173.87;165.90;;;10.30;99.90;;;;;;5001530;28;20332;-71
2023/09/30 06:16:20;;;;;;;169.80;162.27;;;10.30;99.90;;;;;;5005561;28;20277;-71
2023/09/30 06:18:46;;;;;;;250.83;239.73;;;10.40;99.90;;;;;;5009765;28;20287;-71
2023/09/30 06:21:14;;;;;;;184.80;176.43;;;10.40;99.90;;;;;;5004258;28;20335;-71
2023/09/30 06:23:40;;;;;;;213.07;203.90;;;10.50;99.90;;;;;;5003406;28;20289;-71
2023/09/30 06:26:06;;;;;;;226.70;217.03;;;10.50;99.90;;;;;;4988622;28;20816;-71
2023/09/30 06:28:33;;;;;;;189.87;181.73;;;10.60;99.90;;;;;;4997023;28;20101;-71
2023/09/30 06:30:59;;;;;;;242.13;231.80;;;10.70;99.90;;;;;;5007186;28;20105;-71
2023/09/30 06:33:25;;;;;;;192.57;184.17;;;10.80;99.90;;;;;;5000019;28;20320;-71
2023/09/30 06:35:52;;;;;;;203.30;194.40;;;10.90;99.90;;;;;;5000819;28;20757;-71
2023/09/30 06:38:21;;;;;;;290.23;277.37;;;11.00;99.90;;;;;;4998532;28;20046;-71
2023/09/30 06:40:47;;;;;;;278.43;266.30;;;11.00;99.90;;;;;;5008612;28;20689;-71
2023/09/30 06:43:16;;;;;;;301.67;288.20;;;11.10;99.90;;;;;;4995190;28;20299;-71
2023/09/30 06:45:43;;;;;;;265.13;253.73;;;11.20;99.90;;;;;;5006836;28;20355;-72
2023/09/30 06:48:12;;;;;;;264.80;252.90;;;11.30;99.90;;;;;;5007004;28;20339;-71
2023/09/30 06:50:49;;;;;;;201.67;193.17;;;11.40;99.90;;;;;;4998041;28;20335;-73
2023/09/30 06:53:16;;;;;;;221.23;211.70;;;11.50;99.90;;;;;;4990547;28;20375;-73
2023/09/30 06:55:43;;;;;;;227.13;217.70;;;11.60;99.90;;;;;;5004173;28;20285;-73
2023/09/30 06:58:10;;;;;;;193.90;185.53;;;11.70;99.90;;;;;;5007122;28;20285;-72
2023/09/30 07:00:37;;;;;;;203.97;194.97;;;11.80;99.90;;;;;;5000662;28;20363;-72
2023/09/30 07:03:03;;;;;;;235.63;224.97;;;11.90;99.90;;;;;;5010830;28;20292;-72
2023/09/30 07:05:29;;;;;;;221.07;211.53;;;12.00;99.90;;;;;;5005531;28;20289;-73
2023/09/30 07:07:55;;;;;;;225.17;215.73;;;12.10;99.90;;;;;;5001165;28;20329;-71
2023/09/30 07:10:21;;;;;;;261.70;250.30;;;12.30;99.90;;;;;;4991306;28;20288;-74
2023/09/30 07:12:47;;;;;;;216.27;206.57;;;12.40;99.90;;;;;;5007997;28;20301;-71
2023/09/30 07:15:13;;;;;;;291.27;278.13;;;12.50;99.90;;;;;;5000387;28;20618;-71
2023/09/30 07:17:40;;;;;;;265.97;254.77;;;12.60;99.90;;;;;;4998963;28;20042;-71
2023/09/30 07:20:07;;;;;;;267.77;255.33;;;12.70;99.90;;;;;;4988682;28;20388;-71
2023/09/30 07:22:34;;;;;;;310.47;296.87;;;12.90;99.90;;;;;;5004320;28;20324;-71
2023/09/30 07:25:00;;;;;;;301.23;288.30;;;13.00;99.90;;;;;;5005952;28;20347;-71
2023/09/30 07:27:25;;;;;;;294.90;282.00;;;13.10;99.90;;;;;;5009276;28;20327;-71
2023/09/30 07:29:51;;;;;;;263.40;252.50;;;13.20;99.90;;;;;;5005419;28;20305;-71
2023/09/30 07:32:17;;;;;;;254.10;243.00;;;13.40;99.90;;;;;;5004028;28;20513;-71
2023/09/30 07:34:43;;;;;;;242.43;231.60;;;13.50;99.90;;;;;;5006112;28;20095;-71
2023/09/30 07:37:09;;;;;;;291.33;278.57;;;13.60;99.90;;;;;;5007427;28;20600;-71
2023/09/30 07:39:36;;;;;;;268.30;256.83;;;13.70;99.90;;;;;;4999771;28;20300;-71
2023/09/30 07:42:02;;;;;;;255.77;244.00;;;13.90;99.90;;;;;;5001689;28;20046;-71
2023/09/30 07:44:27;;;;;;;254.90;243.97;;;14.00;99.90;;;;;;4995620;28;20280;-71
2023/09/30 07:46:53;;;;;;;295.57;283.37;;;14.10;99.90;;;;;;4992395;28;20384;-71
2023/09/30 07:49:19;;;;;;;268.63;257.00;;;14.20;99.90;;;;;;5007120;28;20077;-71
2023/09/30 07:51:48;;;;;;;199.90;191.47;;;14.30;99.90;;;;;;5007286;28;20494;-72
2023/09/30 07:54:14;;;;;;;231.53;221.40;;;14.40;99.90;;;;;;4998487;28;20286;-72
2023/09/30 07:56:39;;;;;;;240.97;230.73;;;14.50;99.90;;;;;;5002832;28;20303;-72
2023/09/30 07:59:05;;;;;;;260.70;249.63;;;14.60;99.90;;;;;;5004981;28;20072;-72
2023/09/30 08:01:31;;;;;;;236.53;226.30;;;14.70;99.90;;;;;;4997421;28;20472;-72
2023/09/30 08:03:57;;;;;;;326.63;312.50;;;14.80;99.90;;;;;;4983943;28;20049;-72
2023/09/30 08:06:23;;;;;;;275.50;263.70;;;14.90;99.90;;;;;;5020039;28;20990;-72
2023/09/30 08:08:49;;;;;;;308.73;295.13;;;15.00;99.90;;;;;;5008334;28;20104;-72
2023/09/30 08:11:17;;;;;;;301.13;288.33;;;15.10;99.90;;;;;;5003382;28;20332;-72
2023/09/30 08:13:43;;;;;;;310.87;297.00;;;15.20;99.90;;;;;;5022526;28;20297;-72
2023/09/30 08:16:08;;;;;;;294.90;281.80;;;15.30;99.90;;;;;;5007439;28;20295;-72
2023/09/30 08:18:34;;;;;;;309.10;295.77;;;15.40;99.90;;;;;;5005785;28;20496;-72
2023/09/30 08:21:00;;;;;;;285.87;273.60;;;15.50;99.90;;;;;;5008833;28;20069;-72
2023/09/30 08:23:25;;;;;;;305.77;292.47;;;15.60;99.90;;;;;;5007005;28;20054;-72
2023/09/30 08:25:51;;;;;;;348.00;333.00;;;15.70;99.90;;;;;;4991309;28;20041;-72
2023/09/30 08:28:17;;;;;;;319.23;305.67;;;15.80;99.40;;;;;;4999368;28;20038;-72
2023/09/30 08:30:43;;;;;;;321.97;308.07;;;15.80;99.30;;;;;;5007376;28;20119;-72
2023/09/30 08:33:08;;;;;;;302.47;289.60;;;15.90;98.90;;;;;;5001857;28;20096;-72
2023/09/30 08:35:38;;;;;;;356.33;340.10;;;16.00;98.30;;;;;;5005268;28;20077;-72
2023/09/30 08:38:03;;;;;;;346.43;331.60;;;16.00;97.80;;;;;;5008407;28;20133;-72
2023/09/30 08:40:29;;;;;;;355.67;340.23;;;16.10;98.10;;;;;;5000884;28;20717;-71
2023/09/30 08:42:55;;;;;;;387.93;370.73;;;16.20;97.80;;;;;;5003551;28;20422;-72
2023/09/30 08:45:21;;;;;;;360.23;344.03;;;16.30;97.80;;;;;;5006377;28;20046;-72
2023/09/30 08:47:47;;;;;;;381.63;364.77;;;16.40;97.80;;;;;;5012253;28;20567;-72
2023/09/30 08:50:14;;;;;;;385.07;368.03;;;16.40;96.90;;;;;;4987431;28;20286;-72
2023/09/30 08:52:41;;;;;;;378.43;362.07;;;16.50;96.20;;;;;;5011568;28;20281;-72
2023/09/30 08:55:08;;;;;;;364.77;349.13;;;16.60;95.80;;;;;;5020776;28;20285;-72
2023/09/30 08:57:39;;;;;;;374.97;358.27;;;16.70;95.90;;;;;;5006431;28;20272;-72
2023/09/30 09:00:06;;;;;;;378.83;362.30;;;16.80;95.80;;;;;;5013899;28;20281;-72
2023/09/30 09:02:35;;;;;;;375.53;359.07;;;16.90;94.70;;;;;;5004749;28;20284;-72
2023/09/30 09:05:02;;;;;;;396.37;378.73;;;16.90;93.20;;;;;;5008056;28;20287;-72
2023/09/30 09:07:27;;;;;;;391.80;374.53;;;17.00;93.90;;;;;;4997109;28;20377;-72
2023/09/30 09:10:04;;;;;;;372.87;356.27;;;17.10;94.20;;;;;;5007116;28;20724;-72
2023/09/30 09:12:30;;;;;;;410.43;392.17;;;17.20;93.00;;;;;;4994217;28;20038;-72
2023/09/30 09:14:55;;;;;;;399.73;382.10;;;17.30;91.80;;;;;;5012880;28;20293;-72
2023/09/30 09:17:22;;;;;;;385.47;368.17;;;17.50;92.80;;;;;;4995737;28;20397;-72
2023/09/30 09:20:00;;;;;;;388.87;371.47;;;17.60;91.20;;;;;;5010779;28;20453;-72
2023/09/30 09:22:39;;;;;;;334.53;320.07;;;17.80;92.30;;;;;;5005318;28;20284;-72
2023/09/30 09:25:05;;;;;;;384.43;367.37;;;17.90;88.70;;;;;;5003551;28;20281;-72
2023/09/30 09:27:35;;;;;;;377.60;360.60;;;18.00;87.50;;;;;;5004065;28;20287;-70
2023/09/30 09:30:19;;;;;;;318.13;303.77;;;18.20;86.80;;;;;;5000984;28;20277;-69
2023/09/30 09:33:05;;;;;;;347.53;332.13;;;18.50;83.90;;;;;;4997013;28;20035;-71
2023/09/30 09:35:33;;;;;;;359.67;343.53;;;18.60;84.80;;;;;;5005050;28;20042;-70
2023/09/30 09:38:04;;;;;;;386.23;368.90;;;18.80;84.10;;;;;;4995062;28;20050;-71
2023/09/30 09:40:32;;;;;;;395.47;376.13;;;18.90;81.40;;;;;;5003189;28;20049;-70
2023/09/30 09:42:59;;;;;;;366.53;349.53;;;19.00;79.20;;;;;;5003414;28;20046;-70
2023/09/30 09:45:26;;;;;;;401.37;382.47;;;19.10;79.80;;;;;;5001931;28;20042;-71
2023/09/30 09:47:54;;;;;;;285.17;272.33;;;19.20;80.70;;;;;;4978978;28;20122;-70
2023/09/30 09:50:21;;;;;;;328.50;313.63;;;19.20;77.40;;;;;;5001374;28;20164;-70
2023/09/30 09:52:50;;;;;;;432.90;411.73;;;19.10;77.90;;;;;;5007237;28;20177;-70
2023/09/30 09:55:18;;;;;;;411.17;389.33;;;19.30;77.80;;;;;;5020088;28;20042;-70
2023/09/30 09:57:45;;;;;;;377.10;360.20;;;19.40;75.30;;;;;;5002600;28;20184;-70
2023/09/30 10:00:14;;;;;;;316.80;303.30;;;19.50;78.40;;;;;;4992529;28;20046;-70
2023/09/30 10:02:43;;;;;;;364.80;348.87;;;19.40;77.60;;;;;;5006706;28;20061;-70
2023/09/30 10:05:11;;;;;;;350.73;335.47;;;19.20;78.30;;;;;;5009341;28;20123;-70
2023/09/30 10:07:43;;;;;;;387.23;370.17;;;18.90;77.80;;;;;;5002730;28;20117;-70
2023/09/30 10:10:15;;;;;;;373.37;356.93;;;18.60;79.10;;;;;;4992915;28;20383;-70
2023/09/30 10:12:41;;;;;;;309.43;295.83;;;18.40;80.20;;;;;;4998098;28;20405;-69
2023/09/30 10:15:25;;;;;;;304.87;291.87;;;18.10;80.90;;;;;;5004708;28;20041;-69
2023/09/30 10:18:00;;;;;;;290.47;277.03;;;17.90;81.90;;;;;;4997960;28;20513;-70
2023/09/30 10:20:34;;;;;;;306.40;292.90;;;17.70;81.90;;;;;;4999457;28;20046;-70
2023/09/30 10:23:22;;;;;;;313.58;299.77;;;17.50;82.70;;;;;;5012035;28;20042;-72
2023/09/30 10:25:49;;;;;;;317.27;303.70;;;17.50;83.30;;;;;;5005160;28;20414;-71
2023/09/30 10:28:38;;;;;;;317.53;303.80;;;17.50;84.30;;;;;;5001866;28;20049;-71
2023/09/30 10:31:12;;;;;;;275.80;263.87;;;17.60;84.80;;;;;;5005631;28;20078;-71
2023/09/30 10:34:04;;;;;;;274.60;261.80;;;17.80;85.00;;;;;;5018748;28;20440;-71
2023/09/30 10:36:35;;;;;;;336.40;321.70;;;18.00;84.50;;;;;;5010929;28;20053;-71
2023/09/30 10:39:02;;;;;;;271.53;259.63;;;18.00;84.60;;;;;;5010737;28;20046;-72
2023/09/30 10:41:47;;;;;;;309.20;295.80;;;17.90;82.50;;;;;;5002019;28;20445;-71
2023/09/30 10:44:31;;;;;;;282.52;270.50;;;17.90;82.20;;;;;;5007439;28;20065;-72
2023/09/30 10:47:24;;;;;;;301.93;288.97;;;17.80;83.00;;;;;;5003345;28;20050;-72
2023/09/30 10:49:49;;;;;;;269.80;258.53;;;17.80;82.80;;;;;;5011755;28;20045;-71
2023/09/30 10:52:25;;;;;;;290.27;277.53;;;17.80;82.60;;;;;;5006047;28;20104;-73
2023/09/30 10:54:51;;;;;;;277.00;264.80;;;17.90;83.10;;;;;;5013162;28;20709;-72
2023/09/30 10:57:30;;;;;;;271.50;259.97;;;18.10;80.10;;;;;;5016993;28;20053;-72
2023/09/30 11:00:10;;;;;;;273.63;261.80;;;18.30;80.50;;;;;;4997459;28;20038;-72
2023/09/30 11:02:48;;;;;;;251.90;241.03;;;18.50;79.80;;;;;;5014519;28;20077;-71
2023/09/30 11:05:14;;;;;;;279.87;267.73;;;18.60;77.50;;;;;;5014727;28;20149;-72
2023/09/30 11:07:42;;;;;;;273.33;261.77;;;18.70;75.50;;;;;;5004723;28;20149;-72
2023/09/30 11:10:08;;;;;;;263.57;252.53;;;18.70;75.10;;;;;;5007246;28;20478;-70
2023/09/30 11:12:34;;;;;;;308.20;293.33;;;18.80;74.40;;;;;;4997985;28;20049;-71
2023/09/30 11:15:04;;;;;;;270.90;259.47;;;18.80;72.20;;;;;;5004780;28;20049;-72
2023/09/30 11:17:29;;;;;;;301.87;287.20;;;18.90;73.10;;;;;;5004767;28;20038;-71
2023/09/30 11:19:55;;;;;;;288.43;275.50;;;19.00;74.20;;;;;;5000755;28;20521;-72
2023/09/30 11:22:21;;;;;;;302.20;289.57;;;19.10;74.50;;;;;;5003660;28;20073;-72
2023/09/30 11:24:47;;;;;;;319.43;304.83;;;19.20;73.90;;;;;;5010018;28;20088;-72
2023/09/30 11:27:13;;;;;;;337.77;323.03;;;19.30;72.50;;;;;;5014972;28;20401;-72
2023/09/30 11:29:49;;;;;;;320.23;306.03;;;19.40;70.80;;;;;;4987976;28;20046;-72
2023/09/30 11:32:28;;;;;;;475.70;453.27;;;19.40;68.20;;;;;;5007593;28;20190;-72
2023/09/30 11:34:54;;;;;;;601.63;570.43;;;19.40;69.50;;;;;;5001523;28;20074;-72
2023/09/30 11:37:21;;;;;;;583.93;554.20;;;19.40;69.40;;;;;;5009884;28;20037;-72
2023/09/30 11:39:47;;;;;;;579.70;550.10;;;19.50;70.60;;;;;;5012295;28;20410;-72
2023/09/30 11:42:17;;;;;;;594.37;563.30;;;19.50;69.30;;;;;;5003310;28;20057;-72
2023/09/30 11:44:47;;;;;;;629.97;594.80;;;19.60;67.50;;;;;;5010327;28;20434;-71
2023/09/30 11:47:14;;;;;;;658.00;619.93;;;19.60;66.90;;;;;;5008562;28;20628;-72
2023/09/30 11:49:44;;;;;;;723.83;676.93;;;19.70;67.80;;;;;;5008366;28;20046;-73
2023/09/30 11:52:16;;;;;;;586.53;555.70;;;19.80;66.60;;;;;;4999062;28;20096;-72
2023/09/30 11:54:44;;;;;;;650.33;615.20;;;19.90;67.70;;;;;;5008388;28;20046;-73
2023/09/30 11:57:16;;;;;;;715.20;670.60;;;19.80;64.60;;;;;;5012447;28;20134;-73
2023/09/30 11:59:43;;;;;;;708.57;665.77;;;19.80;62.90;;;;;;5010577;28;20053;-72
2023/09/30 12:02:10;;;;;;;635.10;601.73;;;19.80;63.90;;;;;;5007366;28;20049;-72
2023/09/30 12:04:36;;;;;;;649.27;614.33;;;19.90;66.30;;;;;;5016589;28;20413;-72
2023/09/30 12:07:02;;;;;;;679.13;641.40;;;19.90;64.40;;;;;;5006529;28;20041;-71
2023/09/30 12:09:30;;;;;;;662.93;626.60;;;19.90;65.80;;;;;;5009087;28;20041;-71
2023/09/30 12:11:57;;;;;;;701.20;658.77;;;20.00;65.40;;;;;;5002088;28;20053;-71
2023/09/30 12:14:23;;;;;;;710.77;669.70;;;20.00;65.20;;;;;;5012123;28;20057;-72
2023/09/30 12:16:50;;;;;;;199.87;191.50;;;20.00;65.10;;;;;;5012349;28;20034;-72
2023/09/30 12:19:19;;;;;;;393.20;376.43;;;20.00;66.30;;;;;;5009720;28;20505;-72